Time;durP1;ratioP1;P1;durP2;ratioP2;P2;SDS_P1;SDS_P2;PMS_P1;PMS_P2;Temp;Humidity;BMP_temperature;BMP_pressure;BME280_temperature;BME280_humidity;BME280_pressure;Samples;Min_cycle;Max_cycle;Signal;HPM_P1;HPM_P2
2021/04/18 00:00:27;;;;;;;6.30;4.90;;;;;;;;;;5093839;28;20024;-58
2021/04/18 00:03:06;;;;;;;6.73;4.83;;;;;;;;;;5077570;28;20090;-58
2021/04/18 00:05:35;;;;;;;7.30;4.57;;;;;;;;;;5093354;28;20035;-58
2021/04/18 00:08:07;;;;;;;6.20;4.60;;;;;;;;;;5093733;28;20143;-58
2021/04/18 00:10:43;;;;;;;6.60;4.90;;;;;;;;;;5093789;28;20070;-58
2021/04/18 00:13:16;;;;;;;8.73;5.43;;;;;;;;;;5093207;28;20024;-58
2021/04/18 00:15:51;;;;;;;6.27;5.03;;;;;;;;;;5092999;28;20516;-58
2021/04/18 00:18:19;;;;;;;5.83;5.03;;;;;;;;;;5092170;28;20051;-58
2021/04/18 00:20:45;;;;;;;8.03;5.63;;;;;;;;;;5093393;28;20032;-58
2021/04/18 00:23:21;;;;;;;7.07;5.40;;;;;;;;;;5091983;28;20406;-58
2021/04/18 00:25:53;;;;;;;5.70;4.97;;;;;;;;;;5093217;28;20032;-58
2021/04/18 00:28:28;;;;;;;7.90;5.47;;;;;;;;;;5096947;28;20415;-58
2021/04/18 00:31:02;;;;;;;6.20;5.10;;;;;;;;;;5096255;28;20036;-58
2021/04/18 00:33:31;;;;;;;6.43;4.95;;;;;;;;;;5097532;28;20024;-58
2021/04/18 00:36:15;;;;;;;5.33;4.47;;;;;;;;;;5096054;28;20131;-58
2021/04/18 00:38:41;;;;;;;6.50;4.68;;;;;;;;;;5095735;28;20431;-58
2021/04/18 00:41:11;;;;;;;7.23;5.13;;;;;;;;;;5097399;28;20024;-58
2021/04/18 00:43:49;;;;;;;5.60;4.60;;;;;;;;;;5096705;28;20038;-58
2021/04/18 00:46:37;;;;;;;;;;;;;;;;;;;;;
2021/04/18 00:49:06;;;;;;;6.13;5.60;;;;;;;;;;5097283;28;20454;-58
2021/04/18 00:51:35;;;;;;;13.83;5.30;;;;;;;;;;5094171;28;20048;-58
2021/04/18 00:54:06;;;;;;;8.60;6.20;;;;;;;;;;5096444;28;20536;-58
2021/04/18 00:56:42;;;;;;;6.47;5.07;;;;;;;;;;5096587;28;20059;-58
2021/04/18 00:59:08;;;;;;;6.23;4.87;;;;;;;;;;5095065;28;20028;-58
2021/04/18 01:01:47;;;;;;;10.43;5.27;;;;;;;;;;5096351;28;20102;-58
2021/04/18 01:04:14;;;;;;;8.37;6.40;;;;;;;;;;5096224;28;20039;-58
2021/04/18 01:06:46;;;;;;;8.00;5.37;;;;;;;;;;5096238;28;20408;-58
2021/04/18 01:09:15;;;;;;;7.40;5.87;;;;;;;;;;5095758;28;20035;-58
2021/04/18 01:11:48;;;;;;;7.57;6.03;;;;;;;;;;5096043;28;20032;-58
2021/04/18 01:14:17;;;;;;;8.07;6.40;;;;;;;;;;5095829;28;20099;-58
2021/04/18 01:19:41;;;;;;;5.47;4.97;;;;;;;;;;5087684;28;20458;-58
2021/04/18 01:22:08;;;;;;;7.47;6.10;;;;;;;;;;5096571;28;20047;-58
2021/04/18 01:24:45;;;;;;;8.17;6.83;;;;;;;;;;5096011;28;20047;-58
2021/04/18 01:27:22;;;;;;;7.23;6.53;;;;;;;;;;5094656;28;20032;-58
2021/04/18 01:29:55;;;;;;;7.80;6.57;;;;;;;;;;5096391;28;20024;-58
2021/04/18 01:32:22;;;;;;;7.03;6.33;;;;;;;;;;5096114;28;20055;-58
2021/04/18 01:34:51;;;;;;;7.77;6.97;;;;;;;;;;5095575;28;20436;-58
2021/04/18 01:37:21;;;;;;;8.33;7.47;;;;;;;;;;5093866;28;20038;-58
2021/04/18 01:39:51;;;;;;;9.07;7.40;;;;;;;;;;5094650;28;20098;-58
2021/04/18 01:42:21;;;;;;;7.78;6.78;;;;;;;;;;5095974;28;20035;-58
2021/04/18 01:44:59;;;;;;;16.88;8.98;;;;;;;;;;5095564;28;20036;-58
2021/04/18 01:47:28;;;;;;;8.70;7.80;;;;;;;;;;5095960;28;20024;-58
2021/04/18 01:49:58;;;;;;;8.30;7.35;;;;;;;;;;5094667;28;20028;-58
2021/04/18 01:52:28;;;;;;;11.40;8.20;;;;;;;;;;5076928;28;20047;-58
2021/04/18 01:55:00;;;;;;;9.00;6.83;;;;;;;;;;5093618;28;20055;-58
2021/04/18 01:57:32;;;;;;;9.23;7.20;;;;;;;;;;5096022;28;20032;-58
2021/04/18 02:00:01;;;;;;;10.30;7.73;;;;;;;;;;5095849;28;20028;-58
2021/04/18 02:02:31;;;;;;;9.30;7.40;;;;;;;;;;5095205;28;20024;-58
2021/04/18 02:05:03;;;;;;;9.87;8.50;;;;;;;;;;5095349;28;20024;-58
2021/04/18 02:07:38;;;;;;;8.33;7.50;;;;;;;;;;5095022;28;20077;-58
2021/04/18 02:10:14;;;;;;;8.47;7.57;;;;;;;;;;5094231;28;20036;-58
2021/04/18 02:12:43;;;;;;;9.10;8.13;;;;;;;;;;5094978;28;20024;-58
2021/04/18 02:15:18;;;;;;;8.70;6.93;;;;;;;;;;5094433;28;20024;-58
2021/04/18 02:17:50;;;;;;;8.90;7.67;;;;;;;;;;5093816;28;20346;-58
2021/04/18 02:20:19;;;;;;;7.70;6.90;;;;;;;;;;5094841;28;20491;-58
2021/04/18 02:22:46;;;;;;;9.17;7.93;;;;;;;;;;5094352;28;20031;-58
2021/04/18 02:25:14;;;;;;;8.13;7.33;;;;;;;;;;5094418;28;20077;-58
2021/04/18 02:27:43;;;;;;;7.30;6.60;;;;;;;;;;5076485;28;20123;-58
2021/04/18 02:30:09;;;;;;;9.23;8.33;;;;;;;;;;5095119;28;20028;-58
2021/04/18 02:32:38;;;;;;;9.87;8.00;;;;;;;;;;5095164;28;20025;-58
2021/04/18 02:35:06;;;;;;;9.33;8.33;;;;;;;;;;5095659;28;20031;-58
2021/04/18 02:37:45;;;;;;;9.27;8.30;;;;;;;;;;5095338;28;20020;-58
2021/04/18 02:40:16;;;;;;;9.33;8.40;;;;;;;;;;5093858;28;20040;-58
2021/04/18 02:42:48;;;;;;;8.80;7.93;;;;;;;;;;5094819;28;20373;-58
2021/04/18 02:45:24;;;;;;;8.57;7.77;;;;;;;;;;5094949;28;20362;-58
2021/04/18 02:47:57;;;;;;;8.63;7.23;;;;;;;;;;5093914;28;20020;-58
2021/04/18 02:50:35;;;;;;;8.90;7.53;;;;;;;;;;5092942;28;20032;-58
2021/04/18 02:53:01;;;;;;;13.13;8.57;;;;;;;;;;5094248;28;20046;-58
2021/04/18 02:55:33;;;;;;;8.83;7.60;;;;;;;;;;5093673;28;20346;-58
2021/04/18 02:58:19;;;;;;;8.97;8.07;;;;;;;;;;5092148;28;20032;-58
2021/04/18 03:00:52;;;;;;;12.20;7.80;;;;;;;;;;5092763;28;20056;-58
2021/04/18 03:03:22;;;;;;;8.70;7.80;;;;;;;;;;5093623;28;20060;-58
2021/04/18 03:06:00;;;;;;;9.47;7.50;;;;;;;;;;5093821;28;20450;-58
2021/04/18 03:08:26;;;;;;;9.70;8.80;;;;;;;;;;5092222;28;20032;-58
2021/04/18 03:10:55;;;;;;;9.97;8.77;;;;;;;;;;5094290;28;20431;-58
2021/04/18 03:13:29;;;;;;;11.97;10.37;;;;;;;;;;5093933;28;20078;-58
2021/04/18 03:15:58;;;;;;;10.70;8.20;;;;;;;;;;5093776;28;20572;-58
2021/04/18 03:18:40;;;;;;;10.00;8.40;;;;;;;;;;5093687;28;20077;-58
2021/04/18 03:21:09;;;;;;;13.23;10.27;;;;;;;;;;5091800;28;20040;-58
2021/04/18 03:23:46;;;;;;;8.83;7.97;;;;;;;;;;5093878;28;20020;-58
2021/04/18 03:26:12;;;;;;;13.20;8.90;;;;;;;;;;5094179;28;20050;-58
2021/04/18 03:28:48;;;;;;;9.53;8.40;;;;;;;;;;5093499;28;20059;-58
2021/04/18 03:31:20;;;;;;;10.00;8.63;;;;;;;;;;5092056;28;20081;-58
2021/04/18 03:33:50;;;;;;;11.03;8.87;;;;;;;;;;5092224;28;20032;-58
2021/04/18 03:36:22;;;;;;;10.75;9.57;;;;;;;;;;5093937;28;20028;-58
2021/04/18 03:38:52;;;;;;;8.53;7.07;;;;;;;;;;5091888;28;20354;-58
2021/04/18 03:41:24;;;;;;;12.43;8.53;;;;;;;;;;5074420;28;20160;-58
2021/04/18 03:44:03;;;;;;;9.50;8.40;;;;;;;;;;5093627;28;20115;-58
2021/04/18 03:46:30;;;;;;;8.67;7.17;;;;;;;;;;5091946;28;20513;-58
2021/04/18 03:49:02;;;;;;;9.43;8.53;;;;;;;;;;5093550;28;20028;-58
2021/04/18 03:51:35;;;;;;;8.13;7.33;;;;;;;;;;5091360;28;20499;-58
2021/04/18 03:54:04;;;;;;;8.80;7.70;;;;;;;;;;5093378;28;20024;-58
2021/04/18 03:56:30;;;;;;;10.13;8.40;;;;;;;;;;5091853;28;20024;-58
2021/04/18 03:59:02;;;;;;;9.10;8.00;;;;;;;;;;5094116;28;20035;-58
2021/04/18 04:02:01;;;;;;;10.47;9.37;;;;;;;;;;5091721;28;20390;-58
2021/04/18 04:04:27;;;;;;;11.60;9.30;;;;;;;;;;5093865;28;20032;-58
2021/04/18 04:06:57;;;;;;;11.13;9.57;;;;;;;;;;5092627;28;20020;-58
2021/04/18 04:09:32;;;;;;;10.73;9.63;;;;;;;;;;5093250;28;20115;-58
2021/04/18 04:12:01;;;;;;;9.53;8.63;;;;;;;;;;5093305;28;20036;-58
2021/04/18 04:14:33;;;;;;;10.43;9.30;;;;;;;;;;5093687;28;20031;-58
2021/04/18 04:17:08;;;;;;;10.33;8.53;;;;;;;;;;5093742;28;20031;-58
2021/04/18 04:20:02;;;;;;;13.97;10.60;;;;;;;;;;5093948;28;20029;-58
2021/04/18 04:22:31;;;;;;;9.40;8.43;;;;;;;;;;5094149;28;20447;-58
2021/04/18 04:25:02;;;;;;;11.10;9.00;;;;;;;;;;5092684;28;20400;-58
2021/04/18 04:27:44;;;;;;;10.87;9.27;;;;;;;;;;5093648;28;20035;-58
2021/04/18 04:30:35;;;;;;;13.00;9.30;;;;;;;;;;5093518;28;20054;-58
2021/04/18 04:33:01;;;;;;;10.33;8.80;;;;;;;;;;5093474;28;20035;-58
2021/04/18 04:35:46;;;;;;;16.57;10.47;;;;;;;;;;5093055;28;20016;-60
2021/04/18 04:38:15;;;;;;;9.87;8.87;;;;;;;;;;5091860;28;20032;-58
2021/04/18 04:40:45;;;;;;;11.03;10.00;;;;;;;;;;5093757;28;20103;-58
2021/04/18 04:43:14;;;;;;;10.67;9.60;;;;;;;;;;5089851;28;20082;-58
2021/04/18 04:45:42;;;;;;;11.83;10.73;;;;;;;;;;5091772;28;20028;-58
2021/04/18 04:48:16;;;;;;;11.23;9.93;;;;;;;;;;5093079;28;20028;-58
2021/04/18 04:50:45;;;;;;;12.10;10.43;;;;;;;;;;5091379;28;20040;-58
2021/04/18 04:53:18;;;;;;;10.50;9.50;;;;;;;;;;5093125;28;20112;-58
2021/04/18 04:55:49;;;;;;;9.17;8.30;;;;;;;;;;5092663;28;20024;-58
2021/04/18 04:58:26;;;;;;;14.10;9.23;;;;;;;;;;5092528;28;20032;-58
2021/04/18 05:00:55;;;;;;;12.87;9.27;;;;;;;;;;5091987;28;20042;-58
2021/04/18 05:03:36;;;;;;;;;;;;;;;;;;;;;
2021/04/18 05:06:02;;;;;;;;;;;;;;;;;;5094465;28;20020;-58
2021/04/18 05:08:48;;;;;;;12.20;10.93;;;;;;;;;;5093206;28;20031;-58
2021/04/18 05:11:24;;;;;;;12.33;10.53;;;;;;;;;;5093384;28;20082;-58
2021/04/18 05:13:52;;;;;;;14.37;9.40;;;;;;;;;;5093119;28;20043;-58
2021/04/18 05:16:18;;;;;;;12.23;10.27;;;;;;;;;;5096336;28;20020;-58
2021/04/18 05:18:47;;;;;;;11.43;10.30;;;;;;;;;;5096349;28;20025;-58
2021/04/18 05:21:19;;;;;;;13.40;10.07;;;;;;;;;;5096069;28;20028;-58
2021/04/18 05:23:55;;;;;;;14.93;11.20;;;;;;;;;;5096153;28;20119;-58
2021/04/18 05:26:27;;;;;;;11.63;10.27;;;;;;;;;;5096226;28;20024;-58
2021/04/18 05:29:04;;;;;;;11.77;9.90;;;;;;;;;;5096469;28;20055;-58
2021/04/18 05:31:55;;;;;;;12.87;9.33;;;;;;;;;;5096366;28;20111;-58
2021/04/18 05:34:22;;;;;;;10.83;9.47;;;;;;;;;;5095856;28;20422;-58
2021/04/18 05:36:53;;;;;;;11.83;10.00;;;;;;;;;;5094323;28;20031;-58
2021/04/18 05:39:55;;;;;;;12.07;10.77;;;;;;;;;;5094741;28;20016;-58
2021/04/18 05:42:39;;;;;;;11.23;10.10;;;;;;;;;;5096046;28;20081;-58
2021/04/18 05:45:15;;;;;;;11.13;9.73;;;;;;;;;;5096244;28;20016;-58
2021/04/18 05:47:49;;;;;;;12.40;10.57;;;;;;;;;;5094319;28;20028;-58
2021/04/18 05:50:17;;;;;;;11.13;9.40;;;;;;;;;;5094970;28;20032;-58
2021/04/18 05:52:49;;;;;;;9.13;8.30;;;;;;;;;;5095916;28;20080;-58
2021/04/18 05:55:18;;;;;;;9.80;8.70;;;;;;;;;;5094357;28;20028;-58
2021/04/18 05:57:44;;;;;;;8.70;7.80;;;;;;;;;;5095112;28;20461;-58
2021/04/18 06:00:14;;;;;;;9.33;8.37;;;;;;;;;;5095833;28;20123;-58
2021/04/18 06:02:43;;;;;;;9.67;8.77;;;;;;;;;;5089509;28;20035;-58
2021/04/18 06:05:22;;;;;;;9.97;8.93;;;;;;;;;;5093820;28;20031;-58
2021/04/18 06:07:54;;;;;;;10.60;9.33;;;;;;;;;;5095778;28;20070;-58
2021/04/18 06:10:26;;;;;;;;;;;;;;;;;;5095952;28;20188;-58
2021/04/18 06:12:57;;;;;;;10.37;9.23;;;;;;;;;;5094751;28;19914;-58
2021/04/18 06:15:28;;;;;;;10.67;9.13;;;;;;;;;;5095919;28;20016;-60
2021/04/18 06:18:03;;;;;;;;;;;;;;;;;;5095230;28;20311;-58
2021/04/18 06:23:15;;;;;;;13.80;10.23;;;;;;;;;;5095427;28;20039;-58
2021/04/18 06:25:44;;;;;;;11.40;10.20;;;;;;;;;;5094927;28;20049;-58
2021/04/18 06:28:16;;;;;;;10.67;9.57;;;;;;;;;;5093232;28;20469;-58
2021/04/18 06:30:46;;;;;;;11.48;9.25;;;;;;;;;;5093599;28;20491;-59
2021/04/18 06:33:14;;;;;;;11.33;10.23;;;;;;;;;;5094821;28;20074;-58
2021/04/18 06:35:54;;;;;;;15.27;11.23;;;;;;;;;;5095321;28;20450;-58
2021/04/18 06:38:26;;;;;;;11.63;10.43;;;;;;;;;;5094711;28;20061;-58
2021/04/18 06:41:06;;;;;;;13.87;9.77;;;;;;;;;;5095118;28;20036;-58
2021/04/18 06:43:43;;;;;;;11.07;9.98;;;;;;;;;;5093084;28;20032;-58
2021/04/18 06:46:15;;;;;;;11.03;9.63;;;;;;;;;;5094723;28;20044;-58
2021/04/18 06:48:59;;;;;;;13.18;9.93;;;;;;;;;;5095101;28;20117;-58
2021/04/18 06:51:52;;;;;;;11.67;9.47;;;;;;;;;;5077174;28;20064;-58
2021/04/18 06:54:18;;;;;;;10.50;9.23;;;;;;;;;;5089780;28;20122;-58
2021/04/18 06:56:52;;;;;;;13.83;10.63;;;;;;;;;;5092670;28;20398;-58
2021/04/18 06:59:44;;;;;;;13.00;10.63;;;;;;;;;;5094470;28;20074;-58
2021/04/18 07:02:46;;;;;;;10.68;9.07;;;;;;;;;;5094669;28;20338;-58
2021/04/18 07:05:16;;;;;;;10.33;8.43;;;;;;;;;;5011347;28;20034;-58
2021/04/18 07:07:56;;;;;;;10.70;9.65;;;;;;;;;;5079595;28;20040;-59
2021/04/18 07:10:37;;;;;;;12.40;9.63;;;;;;;;;;5094727;28;20071;-58
2021/04/18 07:13:10;;;;;;;12.60;10.63;;;;;;;;;;5092799;28;20024;-58
2021/04/18 07:15:43;;;;;;;11.38;10.20;;;;;;;;;;5093779;28;20024;-58
2021/04/18 07:18:19;;;;;;;10.30;9.20;;;;;;;;;;5092666;28;20023;-58
2021/04/18 07:20:58;;;;;;;11.23;9.95;;;;;;;;;;5093254;28;20457;-59
2021/04/18 07:23:42;;;;;;;11.52;10.32;;;;;;;;;;5092726;28;20434;-58
2021/04/18 07:26:19;;;;;;;10.70;9.45;;;;;;;;;;5077221;28;20020;-58
2021/04/18 07:28:55;;;;;;;10.48;8.43;;;;;;;;;;5093921;28;20024;-58
2021/04/18 07:31:44;;;;;;;14.20;9.43;;;;;;;;;;5093859;28;20024;-58
2021/04/18 07:34:11;;;;;;;9.80;8.88;;;;;;;;;;5084204;28;20043;-58
2021/04/18 07:36:39;;;;;;;14.75;8.95;;;;;;;;;;5093300;28;20119;-58
2021/04/18 07:39:08;;;;;;;11.02;9.27;;;;;;;;;;5092492;28;20465;-58
2021/04/18 07:42:03;;;;;;;10.30;7.00;;;;;;;;;;5092017;28;20035;-58
2021/04/18 07:44:32;;;;;;;15.75;9.55;;;;;;;;;;5093558;28;20035;-59
2021/04/18 07:47:01;;;;;;;9.80;8.50;;;;;;;;;;5092312;28;20513;-59
2021/04/18 07:49:33;;;;;;;14.02;8.73;;;;;;;;;;5093447;28;20040;-58
2021/04/18 07:52:10;;;;;;;9.80;7.40;;;;;;;;;;5091153;28;20481;-60
2021/04/18 07:54:37;;;;;;;9.02;7.88;;;;;;;;;;5076628;28;20028;-60
2021/04/18 07:57:07;;;;;;;11.45;9.13;;;;;;;;;;5074892;28;20052;-60
2021/04/18 07:59:45;;;;;;;12.57;7.85;;;;;;;;;;5092337;28;20064;-58
2021/04/18 08:02:21;;;;;;;10.95;8.38;;;;;;;;;;5093603;28;20043;-58
2021/04/18 08:04:50;;;;;;;12.00;7.07;;;;;;;;;;5093414;28;20469;-58
2021/04/18 08:07:34;;;;;;;9.90;8.25;;;;;;;;;;5091398;28;20130;-59
2021/04/18 08:10:19;;;;;;;8.85;7.95;;;;;;;;;;5092817;28;20028;-59
2021/04/18 08:13:00;;;;;;;8.48;7.50;;;;;;;;;;5092690;28;20021;-60
2021/04/18 08:15:29;;;;;;;8.05;6.97;;;;;;;;;;5091404;28;20047;-59
2021/04/18 08:18:16;;;;;;;8.07;6.82;;;;;;;;;;5091998;28;20028;-60
2021/04/18 08:20:52;;;;;;;8.07;6.13;;;;;;;;;;5091989;28;20419;-60
2021/04/18 08:23:37;;;;;;;11.70;8.52;;;;;;;;;;5091482;28;20020;-60
2021/04/18 08:26:07;;;;;;;7.43;6.07;;;;;;;;;;5091666;28;20028;-59
2021/04/18 08:29:06;;;;;;;8.80;7.28;;;;;;;;;;5093153;28;20028;-60
2021/04/18 08:31:57;;;;;;;12.85;5.35;;;;;;;;;;5092232;28;20457;-59
2021/04/18 08:34:33;;;;;;;10.93;6.88;;;;;;;;;;5075820;28;20040;-59
2021/04/18 08:37:24;;;;;;;7.60;5.15;;;;;;;;;;5092930;28;20488;-59
2021/04/18 08:39:53;;;;;;;9.27;5.35;;;;;;;;;;5091831;28;20319;-59
2021/04/18 08:42:32;;;;;;;7.00;4.65;;;;;;;;;;5093423;28;20361;-60
2021/04/18 08:45:06;;;;;;;5.32;4.75;;;;;;;;;;5093284;28;20026;-60
2021/04/18 08:47:39;;;;;;;9.80;6.32;;;;;;;;;;5093870;28;20028;-59
2021/04/18 08:50:14;;;;;;;6.65;5.93;;;;;;;;;;5095618;28;20039;-59
2021/04/18 08:52:48;;;;;;;7.05;5.93;;;;;;;;;;5094987;28;20104;-59
2021/04/18 08:55:18;;;;;;;6.47;5.25;;;;;;;;;;5095081;28;20032;-60
2021/04/18 08:57:52;;;;;;;10.50;5.57;;;;;;;;;;5096629;28;20028;-59
2021/04/18 09:00:24;;;;;;;9.18;4.80;;;;;;;;;;5096794;28;20051;-59
2021/04/18 09:03:07;;;;;;;9.90;6.57;;;;;;;;;;5095778;28;20020;-59
2021/04/18 09:05:37;;;;;;;7.68;6.28;;;;;;;;;;5095799;28;20026;-59
2021/04/18 09:08:05;;;;;;;8.05;6.53;;;;;;;;;;5095109;28;20038;-59
2021/04/18 09:10:34;;;;;;;9.85;6.53;;;;;;;;;;5095793;28;20036;-60
2021/04/18 09:13:03;;;;;;;8.77;5.72;;;;;;;;;;5096200;28;20024;-61
2021/04/18 09:15:37;;;;;;;7.85;5.32;;;;;;;;;;5096057;28;20020;-61
2021/04/18 09:18:08;;;;;;;7.03;6.28;;;;;;;;;;5095834;28;20055;-60
2021/04/18 09:20:34;;;;;;;12.32;5.50;;;;;;;;;;5096212;28;20020;-61
2021/04/18 09:23:04;;;;;;;11.48;6.18;;;;;;;;;;5096192;28;20461;-60
2021/04/18 09:25:38;;;;;;;9.13;5.85;;;;;;;;;;5095040;28;20034;-59
2021/04/18 09:28:15;;;;;;;9.13;6.20;;;;;;;;;;5095737;28;20131;-61
2021/04/18 09:30:49;;;;;;;6.07;5.47;;;;;;;;;;5094781;28;20040;-60
2021/04/18 09:33:17;;;;;;;5.75;4.95;;;;;;;;;;5094360;28;20032;-61
2021/04/18 09:35:54;;;;;;;8.68;5.97;;;;;;;;;;5096377;28;20024;-60
2021/04/18 09:38:21;;;;;;;8.32;5.60;;;;;;;;;;5094220;28;20456;-60
2021/04/18 09:40:56;;;;;;;8.30;5.88;;;;;;;;;;5096303;28;20042;-60
2021/04/18 09:43:23;;;;;;;11.32;6.30;;;;;;;;;;5095865;28;20024;-60
2021/04/18 09:46:11;;;;;;;8.43;5.07;;;;;;;;;;5095728;28;20078;-61
2021/04/18 09:48:43;;;;;;;10.20;7.10;;;;;;;;;;5096294;28;20154;-60
2021/04/18 09:51:12;;;;;;;12.55;6.32;;;;;;;;;;5094339;28;20481;-61
2021/04/18 09:53:58;;;;;;;8.13;6.00;;;;;;;;;;5095826;28;20103;-61
2021/04/18 09:56:27;;;;;;;11.43;6.20;;;;;;;;;;5096170;28;20028;-61
2021/04/18 09:59:16;;;;;;;6.28;5.00;;;;;;;;;;5095539;28;20074;-60
2021/04/18 10:01:49;;;;;;;7.95;5.53;;;;;;;;;;5093539;28;20496;-60
2021/04/18 10:04:22;;;;;;;10.20;6.88;;;;;;;;;;5094820;28;20032;-60
2021/04/18 10:06:49;;;;;;;7.22;6.53;;;;;;;;;;5095232;28;20028;-59
2021/04/18 10:09:17;;;;;;;10.18;6.30;;;;;;;;;;5095159;28;20024;-60
2021/04/18 10:12:01;;;;;;;8.75;5.50;;;;;;;;;;5095696;28;20051;-60
2021/04/18 10:14:27;;;;;;;8.25;5.88;;;;;;;;;;5091750;28;20039;-61
2021/04/18 10:16:57;;;;;;;7.85;6.43;;;;;;;;;;5094077;28;20093;-61
2021/04/18 10:19:46;;;;;;;8.68;6.75;;;;;;;;;;5095698;28;20381;-59
2021/04/18 10:22:12;;;;;;;8.10;6.53;;;;;;;;;;5093297;28;20080;-60
2021/04/18 10:24:44;;;;;;;7.00;6.30;;;;;;;;;;5094333;28;20040;-60
2021/04/18 10:27:16;;;;;;;12.95;6.65;;;;;;;;;;5077339;28;20024;-62
2021/04/18 10:29:45;;;;;;;11.20;6.50;;;;;;;;;;5095384;28;20023;-60
2021/04/18 10:32:13;;;;;;;7.13;4.85;;;;;;;;;;5093622;28;20062;-61
2021/04/18 10:34:46;;;;;;;9.93;6.57;;;;;;;;;;5094641;28;20051;-61
2021/04/18 10:37:13;;;;;;;9.43;6.15;;;;;;;;;;5094785;28;20369;-60
2021/04/18 10:39:51;;;;;;;8.77;6.32;;;;;;;;;;5094432;28;20481;-61
2021/04/18 10:42:18;;;;;;;7.60;5.80;;;;;;;;;;5094674;28;20020;-60
2021/04/18 10:44:45;;;;;;;8.02;6.00;;;;;;;;;;5093680;28;20111;-59
2021/04/18 10:47:20;;;;;;;6.50;5.80;;;;;;;;;;5094129;28;20024;-59
2021/04/18 10:49:50;;;;;;;8.77;6.90;;;;;;;;;;5095229;28;20035;-60
2021/04/18 10:52:16;;;;;;;8.70;5.85;;;;;;;;;;5094032;28;20048;-60
2021/04/18 10:54:42;;;;;;;9.48;6.78;;;;;;;;;;5094163;28;20028;-60
2021/04/18 10:57:12;;;;;;;10.07;5.97;;;;;;;;;;5094603;28;20028;-60
2021/04/18 10:59:40;;;;;;;8.27;6.32;;;;;;;;;;5094856;28;20093;-60
2021/04/18 11:02:09;;;;;;;7.88;5.85;;;;;;;;;;5094553;28;20424;-60
2021/04/18 11:04:42;;;;;;;10.25;6.70;;;;;;;;;;5094366;28;20024;-60
2021/04/18 11:07:11;;;;;;;8.45;7.03;;;;;;;;;;5095232;28;20401;-60
2021/04/18 11:09:38;;;;;;;10.68;7.68;;;;;;;;;;5094529;28;20438;-60
2021/04/18 11:12:12;;;;;;;11.07;6.28;;;;;;;;;;5093266;28;20058;-60
2021/04/18 11:14:39;;;;;;;8.40;6.32;;;;;;;;;;5094021;28;20028;-60
2021/04/18 11:17:05;;;;;;;8.30;5.65;;;;;;;;;;5094076;28;20027;-60
2021/04/18 11:19:31;;;;;;;10.13;6.32;;;;;;;;;;5094084;28;20030;-60
2021/04/18 11:21:57;;;;;;;12.82;7.13;;;;;;;;;;5093960;28;20020;-60
2021/04/18 11:24:23;;;;;;;9.10;6.90;;;;;;;;;;5093708;28;20024;-60
2021/04/18 11:26:49;;;;;;;9.23;7.07;;;;;;;;;;5075583;28;20111;-60
2021/04/18 11:29:16;;;;;;;9.05;6.30;;;;;;;;;;5093660;28;20035;-60
2021/04/18 11:31:44;;;;;;;7.18;6.18;;;;;;;;;;5075287;28;20377;-60
2021/04/18 11:34:10;;;;;;;11.60;7.93;;;;;;;;;;5093039;28;20112;-60
2021/04/18 11:36:37;;;;;;;8.10;6.55;;;;;;;;;;5093578;28;20028;-60
2021/04/18 11:39:20;;;;;;;7.97;6.18;;;;;;;;;;5093789;28;20118;-60
2021/04/18 11:41:47;;;;;;;11.50;7.10;;;;;;;;;;5092643;28;20492;-60
2021/04/18 11:44:15;;;;;;;8.07;6.05;;;;;;;;;;5091920;28;20028;-60
2021/04/18 11:46:48;;;;;;;7.03;5.88;;;;;;;;;;5093396;28;20016;-60
2021/04/18 11:49:15;;;;;;;9.18;7.40;;;;;;;;;;5093777;28;20059;-60
2021/04/18 11:51:47;;;;;;;7.57;6.78;;;;;;;;;;5093551;28;20542;-60
2021/04/18 11:54:16;;;;;;;9.38;6.43;;;;;;;;;;5091965;28;20028;-60
2021/04/18 11:56:42;;;;;;;7.90;6.50;;;;;;;;;;5092241;28;20115;-60
2021/04/18 11:59:08;;;;;;;8.25;6.63;;;;;;;;;;5093649;28;20038;-60
2021/04/18 12:01:42;;;;;;;9.25;7.20;;;;;;;;;;5093523;28;20452;-60
2021/04/18 12:04:14;;;;;;;11.55;6.68;;;;;;;;;;5093272;28;20103;-61
2021/04/18 12:06:40;;;;;;;9.02;6.13;;;;;;;;;;5092625;28;20138;-59
2021/04/18 12:09:07;;;;;;;8.27;6.15;;;;;;;;;;5092801;28;20346;-60
2021/04/18 12:11:33;;;;;;;7.28;5.72;;;;;;;;;;5093584;28;20039;-60
2021/04/18 12:14:00;;;;;;;6.80;5.85;;;;;;;;;;5093655;28;20023;-60
2021/04/18 12:16:27;;;;;;;11.68;6.72;;;;;;;;;;5092620;28;20119;-60
2021/04/18 12:18:55;;;;;;;7.68;5.97;;;;;;;;;;5094071;28;20016;-60
2021/04/18 12:21:48;;;;;;;7.68;6.28;;;;;;;;;;5093555;28;20024;-60
2021/04/18 12:24:17;;;;;;;7.65;5.63;;;;;;;;;;5096173;28;20381;-60
2021/04/18 12:26:45;;;;;;;8.05;5.95;;;;;;;;;;5097812;28;20043;-60
2021/04/18 12:29:14;;;;;;;7.70;6.22;;;;;;;;;;5097655;28;20043;-60
2021/04/18 12:31:41;;;;;;;8.32;5.68;;;;;;;;;;5095745;28;20080;-60
2021/04/18 12:34:07;;;;;;;7.07;6.10;;;;;;;;;;5095395;28;20032;-60
2021/04/18 12:36:36;;;;;;;6.75;6.05;;;;;;;;;;5097079;28;20020;-60
2021/04/18 12:39:03;;;;;;;6.75;5.65;;;;;;;;;;5097073;28;20027;-60
2021/04/18 12:41:36;;;;;;;9.27;6.18;;;;;;;;;;5096947;28;20024;-60
2021/04/18 12:44:04;;;;;;;10.55;6.22;;;;;;;;;;5096202;28;20031;-60
2021/04/18 12:46:36;;;;;;;9.93;6.13;;;;;;;;;;5097074;28;20035;-60
2021/04/18 12:49:02;;;;;;;9.65;6.22;;;;;;;;;;5096276;28;20093;-60
2021/04/18 12:51:28;;;;;;;9.43;6.28;;;;;;;;;;5078413;28;20087;-59
2021/04/18 12:53:55;;;;;;;7.60;5.82;;;;;;;;;;5096615;28;20024;-60
2021/04/18 12:56:23;;;;;;;8.52;5.63;;;;;;;;;;5096815;28;20056;-60
2021/04/18 12:58:52;;;;;;;5.85;4.97;;;;;;;;;;5096910;28;20024;-61
2021/04/18 13:01:19;;;;;;;6.88;4.95;;;;;;;;;;5096339;28;20034;-61
2021/04/18 13:03:45;;;;;;;7.78;5.85;;;;;;;;;;5096676;28;20473;-60
2021/04/18 13:06:19;;;;;;;7.85;6.35;;;;;;;;;;5095317;28;20515;-61
2021/04/18 13:08:49;;;;;;;7.05;6.25;;;;;;;;;;5095502;28;20495;-60
2021/04/18 13:11:18;;;;;;;8.68;5.70;;;;;;;;;;5096962;28;20028;-60
2021/04/18 13:13:44;;;;;;;7.53;5.10;;;;;;;;;;5097017;28;20020;-60
2021/04/18 13:16:13;;;;;;;6.43;5.70;;;;;;;;;;5096547;28;20075;-60
2021/04/18 13:18:40;;;;;;;8.18;6.32;;;;;;;;;;5096559;28;20035;-60
2021/04/18 13:21:07;;;;;;;6.22;5.07;;;;;;;;;;5095430;28;20020;-60
2021/04/18 13:23:33;;;;;;;9.85;5.75;;;;;;;;;;5095684;28;20144;-60
2021/04/18 13:26:02;;;;;;;8.55;5.85;;;;;;;;;;5096776;28;20393;-60
2021/04/18 13:28:31;;;;;;;6.63;5.97;;;;;;;;;;5095636;28;20085;-60
2021/04/18 13:31:00;;;;;;;9.10;5.60;;;;;;;;;;5095168;28;20020;-60
2021/04/18 13:33:27;;;;;;;7.15;6.13;;;;;;;;;;5094629;28;20045;-60
2021/04/18 13:35:55;;;;;;;6.90;6.15;;;;;;;;;;5094079;28;20557;-59
2021/04/18 13:38:21;;;;;;;7.38;6.13;;;;;;;;;;5095875;28;20039;-60
2021/04/18 13:40:47;;;;;;;7.90;6.60;;;;;;;;;;5096528;28;20028;-60
2021/04/18 13:43:16;;;;;;;5.90;5.32;;;;;;;;;;5095983;28;20138;-59
2021/04/18 13:45:44;;;;;;;6.68;5.53;;;;;;;;;;5094366;28;20041;-60
2021/04/18 13:48:10;;;;;;;5.65;5.05;;;;;;;;;;5096284;28;20034;-60
2021/04/18 13:50:36;;;;;;;7.50;6.53;;;;;;;;;;5095677;28;20020;-60
2021/04/18 13:53:03;;;;;;;6.82;5.68;;;;;;;;;;5095696;28;20031;-61
2021/04/18 13:55:36;;;;;;;7.40;5.07;;;;;;;;;;5094502;28;20063;-60
2021/04/18 13:58:02;;;;;;;9.38;6.30;;;;;;;;;;5095655;28;20032;-60
2021/04/18 14:00:28;;;;;;;6.85;5.30;;;;;;;;;;5094395;28;20035;-61
2021/04/18 14:02:57;;;;;;;6.65;5.68;;;;;;;;;;5094324;28;20028;-61
2021/04/18 14:05:32;;;;;;;7.72;6.00;;;;;;;;;;5095461;28;20039;-61
2021/04/18 14:07:58;;;;;;;10.18;6.43;;;;;;;;;;5094550;28;20020;-60
2021/04/18 14:10:24;;;;;;;6.25;5.60;;;;;;;;;;5096357;28;20028;-60
2021/04/18 14:12:53;;;;;;;9.90;6.32;;;;;;;;;;5095737;28;20056;-61
2021/04/18 14:15:22;;;;;;;6.85;6.15;;;;;;;;;;5094180;28;20051;-60
2021/04/18 14:17:48;;;;;;;6.60;5.70;;;;;;;;;;5095220;28;20381;-60
2021/04/18 14:20:17;;;;;;;6.47;5.05;;;;;;;;;;5095523;28;20024;-60
2021/04/18 14:22:43;;;;;;;6.72;5.72;;;;;;;;;;5077506;28;20381;-60
2021/04/18 14:25:10;;;;;;;9.10;6.03;;;;;;;;;;5093613;28;20025;-60
2021/04/18 14:27:40;;;;;;;6.43;5.50;;;;;;;;;;5093692;28;20038;-60
2021/04/18 14:30:10;;;;;;;7.28;6.25;;;;;;;;;;5093381;28;20055;-60
2021/04/18 14:32:37;;;;;;;6.25;5.15;;;;;;;;;;5094262;28;20415;-60
2021/04/18 14:35:06;;;;;;;9.77;5.82;;;;;;;;;;5094150;28;20494;-60
2021/04/18 14:37:38;;;;;;;7.17;5.50;;;;;;;;;;5094931;28;20102;-60
2021/04/18 14:40:05;;;;;;;11.13;5.72;;;;;;;;;;5094391;28;20035;-60
2021/04/18 14:42:31;;;;;;;5.85;5.20;;;;;;;;;;5094750;28;20076;-60
2021/04/18 14:44:57;;;;;;;9.32;5.82;;;;;;;;;;5093078;28;20046;-60
2021/04/18 14:47:24;;;;;;;6.72;5.57;;;;;;;;;;5093358;28;20028;-60
2021/04/18 14:49:53;;;;;;;6.30;5.18;;;;;;;;;;5095449;28;20024;-60
2021/04/18 14:52:19;;;;;;;9.07;6.70;;;;;;;;;;5094920;28;20116;-60
2021/04/18 14:54:48;;;;;;;7.15;5.65;;;;;;;;;;5094411;28;20031;-60
2021/04/18 14:57:14;;;;;;;7.47;5.20;;;;;;;;;;5094565;28;20048;-60
2021/04/18 14:59:40;;;;;;;6.63;5.97;;;;;;;;;;5093727;28;20024;-60
2021/04/18 15:02:10;;;;;;;6.20;5.45;;;;;;;;;;5092985;28;20048;-60
2021/04/18 15:04:36;;;;;;;6.35;5.55;;;;;;;;;;5094482;28;20077;-60
2021/04/18 15:07:02;;;;;;;7.18;5.80;;;;;;;;;;5094424;28;20024;-60
2021/04/18 15:09:29;;;;;;;8.63;6.28;;;;;;;;;;5093536;28;20434;-60
2021/04/18 15:11:55;;;;;;;10.80;6.60;;;;;;;;;;5095603;28;20062;-60
2021/04/18 15:14:21;;;;;;;6.78;4.75;;;;;;;;;;5094126;28;20107;-60